sensor_id;sensor_type;location;lat;lon;timestamp;P1;durP1;ratioP1;P2;durP2;ratioP2
22030;SDS011;11179;52.106;21.024;2024-03-06T00:02:00;89.13;;;30.30;;
22030;SDS011;11179;52.106;21.024;2024-03-06T00:04:27;95.27;;;31.37;;
22030;SDS011;11179;52.106;21.024;2024-03-06T00:06:52;96.57;;;30.57;;
22030;SDS011;11179;52.106;21.024;2024-03-06T00:09:20;97.80;;;29.07;;
22030;SDS011;11179;52.106;21.024;2024-03-06T00:11:46;93.73;;;32.00;;
22030;SDS011;11179;52.106;21.024;2024-03-06T00:14:11;87.53;;;30.47;;
22030;SDS011;11179;52.106;21.024;2024-03-06T00:16:37;97.60;;;32.87;;
22030;SDS011;11179;52.106;21.024;2024-03-06T00:19:03;92.70;;;33.20;;
22030;SDS011;11179;52.106;21.024;2024-03-06T00:21:29;89.03;;;31.20;;
22030;SDS011;11179;52.106;21.024;2024-03-06T00:23:54;84.63;;;33.90;;
22030;SDS011;11179;52.106;21.024;2024-03-06T00:26:20;93.77;;;31.87;;
22030;SDS011;11179;52.106;21.024;2024-03-06T00:28:46;82.43;;;31.40;;
22030;SDS011;11179;52.106;21.024;2024-03-06T00:31:12;92.50;;;36.70;;
22030;SDS011;11179;52.106;21.024;2024-03-06T00:33:37;105.70;;;45.17;;
22030;SDS011;11179;52.106;21.024;2024-03-06T00:36:03;90.07;;;37.50;;
22030;SDS011;11179;52.106;21.024;2024-03-06T00:38:28;92.20;;;32.70;;
22030;SDS011;11179;52.106;21.024;2024-03-06T00:40:54;100.17;;;33.70;;
22030;SDS011;11179;52.106;21.024;2024-03-06T00:43:20;113.45;;;38.13;;
22030;SDS011;11179;52.106;21.024;2024-03-06T00:45:46;112.00;;;42.47;;
22030;SDS011;11179;52.106;21.024;2024-03-06T00:48:11;110.70;;;46.20;;
22030;SDS011;11179;52.106;21.024;2024-03-06T00:50:37;97.53;;;38.47;;
22030;SDS011;11179;52.106;21.024;2024-03-06T00:53:02;100.23;;;37.50;;
22030;SDS011;11179;52.106;21.024;2024-03-06T00:55:29;117.23;;;42.47;;
22030;SDS011;11179;52.106;21.024;2024-03-06T00:57:54;107.63;;;41.93;;
22030;SDS011;11179;52.106;21.024;2024-03-06T01:00:20;107.23;;;41.27;;
22030;SDS011;11179;52.106;21.024;2024-03-06T01:02:47;166.97;;;57.67;;
22030;SDS011;11179;52.106;21.024;2024-03-06T01:05:13;179.63;;;72.97;;
22030;SDS011;11179;52.106;21.024;2024-03-06T01:07:38;111.10;;;39.53;;
22030;SDS011;11179;52.106;21.024;2024-03-06T01:10:04;102.17;;;39.00;;
22030;SDS011;11179;52.106;21.024;2024-03-06T01:12:31;148.10;;;52.63;;
22030;SDS011;11179;52.106;21.024;2024-03-06T01:14:57;164.47;;;61.47;;
22030;SDS011;11179;52.106;21.024;2024-03-06T01:17:23;127.20;;;45.23;;
22030;SDS011;11179;52.106;21.024;2024-03-06T01:19:48;196.17;;;76.00;;
22030;SDS011;11179;52.106;21.024;2024-03-06T01:22:14;192.00;;;68.43;;
22030;SDS011;11179;52.106;21.024;2024-03-06T01:24:39;141.47;;;51.27;;
22030;SDS011;11179;52.106;21.024;2024-03-06T01:27:05;125.87;;;43.00;;
22030;SDS011;11179;52.106;21.024;2024-03-06T01:29:31;133.80;;;48.03;;
22030;SDS011;11179;52.106;21.024;2024-03-06T01:31:56;153.07;;;51.90;;
22030;SDS011;11179;52.106;21.024;2024-03-06T01:34:21;117.13;;;45.20;;
22030;SDS011;11179;52.106;21.024;2024-03-06T01:36:47;108.23;;;39.40;;
22030;SDS011;11179;52.106;21.024;2024-03-06T01:39:13;97.73;;;36.90;;
22030;SDS011;11179;52.106;21.024;2024-03-06T01:41:44;125.47;;;42.40;;
22030;SDS011;11179;52.106;21.024;2024-03-06T01:44:13;105.03;;;37.73;;
22030;SDS011;11179;52.106;21.024;2024-03-06T01:46:39;105.23;;;37.60;;
22030;SDS011;11179;52.106;21.024;2024-03-06T01:49:05;104.60;;;37.20;;
22030;SDS011;11179;52.106;21.024;2024-03-06T01:51:31;80.20;;;35.80;;
22030;SDS011;11179;52.106;21.024;2024-03-06T01:53:57;86.30;;;38.60;;
22030;SDS011;11179;52.106;21.024;2024-03-06T01:56:25;89.80;;;36.23;;
22030;SDS011;11179;52.106;21.024;2024-03-06T01:58:52;85.10;;;37.10;;
22030;SDS011;11179;52.106;21.024;2024-03-06T02:01:18;93.70;;;37.60;;
22030;SDS011;11179;52.106;21.024;2024-03-06T02:03:44;80.80;;;34.50;;
22030;SDS011;11179;52.106;21.024;2024-03-06T02:06:10;77.03;;;34.17;;
22030;SDS011;11179;52.106;21.024;2024-03-06T02:08:39;92.80;;;34.33;;
22030;SDS011;11179;52.106;21.024;2024-03-06T02:11:04;77.33;;;34.87;;
22030;SDS011;11179;52.106;21.024;2024-03-06T02:13:32;84.10;;;36.20;;
22030;SDS011;11179;52.106;21.024;2024-03-06T02:15:57;67.67;;;31.93;;
22030;SDS011;11179;52.106;21.024;2024-03-06T02:18:23;73.20;;;31.67;;
22030;SDS011;11179;52.106;21.024;2024-03-06T02:20:48;68.30;;;31.70;;
22030;SDS011;11179;52.106;21.024;2024-03-06T02:23:15;65.80;;;29.87;;
22030;SDS011;11179;52.106;21.024;2024-03-06T02:25:42;68.83;;;33.57;;
22030;SDS011;11179;52.106;21.024;2024-03-06T02:28:08;71.20;;;31.47;;
22030;SDS011;11179;52.106;21.024;2024-03-06T02:30:34;64.93;;;31.63;;
22030;SDS011;11179;52.106;21.024;2024-03-06T02:33:02;72.17;;;32.80;;
22030;SDS011;11179;52.106;21.024;2024-03-06T02:35:29;64.10;;;30.07;;
22030;SDS011;11179;52.106;21.024;2024-03-06T02:37:54;67.43;;;32.00;;
22030;SDS011;11179;52.106;21.024;2024-03-06T02:40:21;72.23;;;30.97;;
22030;SDS011;11179;52.106;21.024;2024-03-06T02:42:47;61.93;;;29.53;;
22030;SDS011;11179;52.106;21.024;2024-03-06T02:45:13;67.30;;;30.50;;
22030;SDS011;11179;52.106;21.024;2024-03-06T02:47:38;58.80;;;28.53;;
22030;SDS011;11179;52.106;21.024;2024-03-06T02:50:04;65.43;;;28.87;;
22030;SDS011;11179;52.106;21.024;2024-03-06T02:52:30;57.07;;;27.37;;
22030;SDS011;11179;52.106;21.024;2024-03-06T02:54:56;66.70;;;28.83;;
22030;SDS011;11179;52.106;21.024;2024-03-06T02:57:21;76.53;;;29.07;;
22030;SDS011;11179;52.106;21.024;2024-03-06T02:59:47;58.33;;;26.70;;
22030;SDS011;11179;52.106;21.024;2024-03-06T03:02:12;60.37;;;29.13;;
22030;SDS011;11179;52.106;21.024;2024-03-06T03:04:38;63.73;;;28.73;;
22030;SDS011;11179;52.106;21.024;2024-03-06T03:07:03;66.50;;;30.83;;
22030;SDS011;11179;52.106;21.024;2024-03-06T03:09:30;60.93;;;28.37;;
22030;SDS011;11179;52.106;21.024;2024-03-06T03:11:55;52.60;;;26.30;;
22030;SDS011;11179;52.106;21.024;2024-03-06T03:14:22;59.73;;;27.00;;
22030;SDS011;11179;52.106;21.024;2024-03-06T03:16:47;51.03;;;25.97;;
22030;SDS011;11179;52.106;21.024;2024-03-06T03:19:13;42.43;;;21.23;;
22030;SDS011;11179;52.106;21.024;2024-03-06T03:21:41;56.30;;;24.30;;
22030;SDS011;11179;52.106;21.024;2024-03-06T03:24:08;52.03;;;24.77;;
22030;SDS011;11179;52.106;21.024;2024-03-06T03:26:33;61.37;;;25.20;;
22030;SDS011;11179;52.106;21.024;2024-03-06T03:28:59;47.23;;;24.00;;
22030;SDS011;11179;52.106;21.024;2024-03-06T03:31:24;52.63;;;24.70;;
22030;SDS011;11179;52.106;21.024;2024-03-06T03:33:49;48.30;;;23.87;;
22030;SDS011;11179;52.106;21.024;2024-03-06T03:36:15;55.00;;;24.27;;
22030;SDS011;11179;52.106;21.024;2024-03-06T03:38:40;47.00;;;22.57;;
22030;SDS011;11179;52.106;21.024;2024-03-06T03:41:12;51.17;;;25.23;;
22030;SDS011;11179;52.106;21.024;2024-03-06T03:43:41;57.47;;;25.50;;
22030;SDS011;11179;52.106;21.024;2024-03-06T03:46:06;55.27;;;22.67;;
22030;SDS011;11179;52.106;21.024;2024-03-06T03:48:32;52.67;;;25.20;;
22030;SDS011;11179;52.106;21.024;2024-03-06T03:51:01;47.43;;;22.17;;
22030;SDS011;11179;52.106;21.024;2024-03-06T03:53:29;52.20;;;25.57;;
22030;SDS011;11179;52.106;21.024;2024-03-06T03:55:54;54.17;;;23.37;;
22030;SDS011;11179;52.106;21.024;2024-03-06T03:58:19;48.23;;;22.70;;
22030;SDS011;11179;52.106;21.024;2024-03-06T04:00:45;40.00;;;21.47;;
22030;SDS011;11179;52.106;21.024;2024-03-06T04:03:10;48.70;;;23.90;;
22030;SDS011;11179;52.106;21.024;2024-03-06T04:05:35;43.70;;;21.67;;
22030;SDS011;11179;52.106;21.024;2024-03-06T04:08:01;52.43;;;23.60;;
22030;SDS011;11179;52.106;21.024;2024-03-06T04:10:26;50.00;;;23.17;;
22030;SDS011;11179;52.106;21.024;2024-03-06T04:12:51;48.20;;;23.17;;
22030;SDS011;11179;52.106;21.024;2024-03-06T04:15:18;46.87;;;22.40;;
22030;SDS011;11179;52.106;21.024;2024-03-06T04:17:43;45.03;;;22.80;;
22030;SDS011;11179;52.106;21.024;2024-03-06T04:20:09;45.17;;;23.87;;
22030;SDS011;11179;52.106;21.024;2024-03-06T04:22:37;55.87;;;24.53;;
22030;SDS011;11179;52.106;21.024;2024-03-06T04:25:03;43.63;;;23.17;;
22030;SDS011;11179;52.106;21.024;2024-03-06T04:27:30;44.03;;;22.27;;
22030;SDS011;11179;52.106;21.024;2024-03-06T04:29:55;45.57;;;20.60;;
22030;SDS011;11179;52.106;21.024;2024-03-06T04:32:20;42.20;;;20.30;;
22030;SDS011;11179;52.106;21.024;2024-03-06T04:34:46;51.17;;;24.10;;
22030;SDS011;11179;52.106;21.024;2024-03-06T04:37:11;48.97;;;21.90;;
22030;SDS011;11179;52.106;21.024;2024-03-06T04:39:37;48.37;;;22.60;;
22030;SDS011;11179;52.106;21.024;2024-03-06T04:42:03;44.90;;;21.70;;
22030;SDS011;11179;52.106;21.024;2024-03-06T04:44:28;45.67;;;22.67;;
22030;SDS011;11179;52.106;21.024;2024-03-06T04:46:53;49.23;;;22.53;;
22030;SDS011;11179;52.106;21.024;2024-03-06T04:49:19;40.50;;;20.63;;
22030;SDS011;11179;52.106;21.024;2024-03-06T04:51:44;46.80;;;21.20;;
22030;SDS011;11179;52.106;21.024;2024-03-06T04:54:10;49.80;;;21.17;;
22030;SDS011;11179;52.106;21.024;2024-03-06T04:56:35;45.07;;;20.53;;
22030;SDS011;11179;52.106;21.024;2024-03-06T04:59:01;48.10;;;22.43;;
22030;SDS011;11179;52.106;21.024;2024-03-06T05:01:28;47.27;;;21.93;;
22030;SDS011;11179;52.106;21.024;2024-03-06T05:03:54;40.10;;;19.40;;
22030;SDS011;11179;52.106;21.024;2024-03-06T05:06:20;41.73;;;19.37;;
22030;SDS011;11179;52.106;21.024;2024-03-06T05:08:47;44.40;;;21.77;;
22030;SDS011;11179;52.106;21.024;2024-03-06T05:11:12;38.40;;;19.90;;
22030;SDS011;11179;52.106;21.024;2024-03-06T05:13:37;46.00;;;20.80;;
22030;SDS011;11179;52.106;21.024;2024-03-06T05:16:03;41.67;;;20.40;;
22030;SDS011;11179;52.106;21.024;2024-03-06T05:18:28;42.83;;;19.83;;
22030;SDS011;11179;52.106;21.024;2024-03-06T05:20:54;46.90;;;22.07;;
22030;SDS011;11179;52.106;21.024;2024-03-06T05:23:19;46.53;;;20.63;;
22030;SDS011;11179;52.106;21.024;2024-03-06T05:25:45;44.20;;;19.90;;
22030;SDS011;11179;52.106;21.024;2024-03-06T05:28:10;46.47;;;20.17;;
22030;SDS011;11179;52.106;21.024;2024-03-06T05:30:35;46.40;;;22.30;;
22030;SDS011;11179;52.106;21.024;2024-03-06T05:33:02;38.93;;;17.57;;
22030;SDS011;11179;52.106;21.024;2024-03-06T05:35:27;39.57;;;20.83;;
22030;SDS011;11179;52.106;21.024;2024-03-06T05:37:52;45.40;;;22.40;;
22030;SDS011;11179;52.106;21.024;2024-03-06T05:40:18;44.30;;;21.07;;
22030;SDS011;11179;52.106;21.024;2024-03-06T05:42:43;51.03;;;23.03;;
22030;SDS011;11179;52.106;21.024;2024-03-06T05:45:09;43.90;;;20.70;;
22030;SDS011;11179;52.106;21.024;2024-03-06T05:47:37;43.57;;;22.03;;
22030;SDS011;11179;52.106;21.024;2024-03-06T05:50:03;43.73;;;21.00;;
22030;SDS011;11179;52.106;21.024;2024-03-06T05:52:32;41.60;;;21.53;;
22030;SDS011;11179;52.106;21.024;2024-03-06T05:54:59;41.53;;;20.57;;
22030;SDS011;11179;52.106;21.024;2024-03-06T05:57:24;42.23;;;22.40;;
22030;SDS011;11179;52.106;21.024;2024-03-06T05:59:50;51.23;;;23.03;;
22030;SDS011;11179;52.106;21.024;2024-03-06T06:02:15;47.67;;;23.40;;
22030;SDS011;11179;52.106;21.024;2024-03-06T06:04:45;44.53;;;21.73;;
22030;SDS011;11179;52.106;21.024;2024-03-06T06:07:10;49.17;;;22.23;;
22030;SDS011;11179;52.106;21.024;2024-03-06T06:09:36;43.97;;;20.70;;
22030;SDS011;11179;52.106;21.024;2024-03-06T06:12:01;44.40;;;21.57;;
22030;SDS011;11179;52.106;21.024;2024-03-06T06:14:26;50.37;;;21.57;;
22030;SDS011;11179;52.106;21.024;2024-03-06T06:16:54;45.27;;;21.83;;
22030;SDS011;11179;52.106;21.024;2024-03-06T06:19:19;47.17;;;21.27;;
22030;SDS011;11179;52.106;21.024;2024-03-06T06:21:44;47.80;;;20.07;;
22030;SDS011;11179;52.106;21.024;2024-03-06T06:24:12;46.37;;;21.27;;
22030;SDS011;11179;52.106;21.024;2024-03-06T06:26:37;43.87;;;20.23;;
22030;SDS011;11179;52.106;21.024;2024-03-06T06:29:02;50.17;;;23.60;;
22030;SDS011;11179;52.106;21.024;2024-03-06T06:31:28;39.70;;;21.00;;
22030;SDS011;11179;52.106;21.024;2024-03-06T06:33:53;46.20;;;21.43;;
22030;SDS011;11179;52.106;21.024;2024-03-06T06:36:19;48.83;;;22.90;;
22030;SDS011;11179;52.106;21.024;2024-03-06T06:38:45;51.83;;;22.37;;
22030;SDS011;11179;52.106;21.024;2024-03-06T06:41:12;55.13;;;23.20;;
22030;SDS011;11179;52.106;21.024;2024-03-06T06:43:39;45.33;;;21.73;;
22030;SDS011;11179;52.106;21.024;2024-03-06T06:46:06;45.23;;;21.87;;
22030;SDS011;11179;52.106;21.024;2024-03-06T06:48:32;43.40;;;21.10;;
22030;SDS011;11179;52.106;21.024;2024-03-06T06:50:58;47.17;;;22.40;;
22030;SDS011;11179;52.106;21.024;2024-03-06T06:53:25;51.20;;;18.87;;
22030;SDS011;11179;52.106;21.024;2024-03-06T06:55:51;47.13;;;21.00;;
22030;SDS011;11179;52.106;21.024;2024-03-06T06:58:16;42.07;;;21.30;;
22030;SDS011;11179;52.106;21.024;2024-03-06T07:00:41;42.57;;;19.90;;
22030;SDS011;11179;52.106;21.024;2024-03-06T07:03:07;42.37;;;19.40;;
22030;SDS011;11179;52.106;21.024;2024-03-06T07:05:32;39.53;;;20.70;;
22030;SDS011;11179;52.106;21.024;2024-03-06T07:07:58;44.30;;;18.53;;
22030;SDS011;11179;52.106;21.024;2024-03-06T07:10:23;37.03;;;20.03;;
22030;SDS011;11179;52.106;21.024;2024-03-06T07:12:48;43.17;;;18.53;;
22030;SDS011;11179;52.106;21.024;2024-03-06T07:15:14;44.80;;;19.07;;
22030;SDS011;11179;52.106;21.024;2024-03-06T07:17:39;43.77;;;20.13;;
22030;SDS011;11179;52.106;21.024;2024-03-06T07:20:05;45.43;;;20.00;;
22030;SDS011;11179;52.106;21.024;2024-03-06T07:22:31;38.10;;;17.83;;
22030;SDS011;11179;52.106;21.024;2024-03-06T07:24:56;37.17;;;17.73;;
22030;SDS011;11179;52.106;21.024;2024-03-06T07:27:22;36.93;;;19.17;;
22030;SDS011;11179;52.106;21.024;2024-03-06T07:29:47;41.73;;;18.87;;
22030;SDS011;11179;52.106;21.024;2024-03-06T07:32:13;39.00;;;16.90;;
22030;SDS011;11179;52.106;21.024;2024-03-06T07:34:38;37.27;;;18.43;;
22030;SDS011;11179;52.106;21.024;2024-03-06T07:37:03;36.73;;;18.53;;
22030;SDS011;11179;52.106;21.024;2024-03-06T07:39:29;34.67;;;17.77;;
22030;SDS011;11179;52.106;21.024;2024-03-06T07:41:56;38.20;;;17.73;;
22030;SDS011;11179;52.106;21.024;2024-03-06T07:44:21;38.17;;;16.53;;
22030;SDS011;11179;52.106;21.024;2024-03-06T07:46:47;35.37;;;17.47;;
22030;SDS011;11179;52.106;21.024;2024-03-06T07:49:13;35.93;;;17.47;;
22030;SDS011;11179;52.106;21.024;2024-03-06T07:51:39;35.10;;;18.57;;
22030;SDS011;11179;52.106;21.024;2024-03-06T07:54:05;35.40;;;18.37;;
22030;SDS011;11179;52.106;21.024;2024-03-06T07:56:31;35.10;;;15.20;;
22030;SDS011;11179;52.106;21.024;2024-03-06T07:58:56;41.27;;;18.53;;
22030;SDS011;11179;52.106;21.024;2024-03-06T08:01:22;29.50;;;13.83;;
22030;SDS011;11179;52.106;21.024;2024-03-06T08:03:48;38.30;;;17.73;;
22030;SDS011;11179;52.106;21.024;2024-03-06T08:06:14;33.87;;;16.13;;
22030;SDS011;11179;52.106;21.024;2024-03-06T08:08:40;38.10;;;15.67;;
22030;SDS011;11179;52.106;21.024;2024-03-06T08:11:09;35.27;;;17.90;;
22030;SDS011;11179;52.106;21.024;2024-03-06T08:13:36;30.00;;;15.53;;
22030;SDS011;11179;52.106;21.024;2024-03-06T08:16:02;35.33;;;16.77;;
22030;SDS011;11179;52.106;21.024;2024-03-06T08:18:29;36.30;;;17.27;;
22030;SDS011;11179;52.106;21.024;2024-03-06T08:20:54;36.20;;;16.43;;
22030;SDS011;11179;52.106;21.024;2024-03-06T08:23:20;35.90;;;15.40;;
22030;SDS011;11179;52.106;21.024;2024-03-06T08:25:45;34.17;;;16.63;;
22030;SDS011;11179;52.106;21.024;2024-03-06T08:28:11;37.10;;;16.73;;
22030;SDS011;11179;52.106;21.024;2024-03-06T08:30:37;32.77;;;17.13;;
22030;SDS011;11179;52.106;21.024;2024-03-06T08:33:02;36.00;;;16.93;;
22030;SDS011;11179;52.106;21.024;2024-03-06T08:35:27;33.30;;;15.30;;
22030;SDS011;11179;52.106;21.024;2024-03-06T08:37:53;36.37;;;13.00;;
22030;SDS011;11179;52.106;21.024;2024-03-06T08:40:18;29.80;;;14.90;;
22030;SDS011;11179;52.106;21.024;2024-03-06T08:42:44;33.17;;;15.17;;
22030;SDS011;11179;52.106;21.024;2024-03-06T08:45:10;35.13;;;16.83;;
22030;SDS011;11179;52.106;21.024;2024-03-06T08:47:36;32.20;;;14.67;;
22030;SDS011;11179;52.106;21.024;2024-03-06T08:50:01;35.07;;;17.03;;
22030;SDS011;11179;52.106;21.024;2024-03-06T08:52:27;36.40;;;17.20;;
22030;SDS011;11179;52.106;21.024;2024-03-06T08:54:53;31.57;;;15.17;;
22030;SDS011;11179;52.106;21.024;2024-03-06T08:57:18;40.87;;;17.87;;
22030;SDS011;11179;52.106;21.024;2024-03-06T08:59:46;35.70;;;17.57;;
22030;SDS011;11179;52.106;21.024;2024-03-06T09:02:20;35.83;;;16.10;;
22030;SDS011;11179;52.106;21.024;2024-03-06T09:04:46;31.97;;;14.67;;
22030;SDS011;11179;52.106;21.024;2024-03-06T09:07:12;37.10;;;15.70;;
22030;SDS011;11179;52.106;21.024;2024-03-06T09:09:38;36.90;;;16.67;;
22030;SDS011;11179;52.106;21.024;2024-03-06T09:12:04;27.83;;;15.30;;
22030;SDS011;11179;52.106;21.024;2024-03-06T09:14:33;37.17;;;15.80;;
22030;SDS011;11179;52.106;21.024;2024-03-06T09:16:59;32.57;;;16.43;;
22030;SDS011;11179;52.106;21.024;2024-03-06T09:19:25;36.67;;;17.00;;
22030;SDS011;11179;52.106;21.024;2024-03-06T09:21:50;30.40;;;15.17;;
22030;SDS011;11179;52.106;21.024;2024-03-06T09:24:16;32.67;;;14.43;;
22030;SDS011;11179;52.106;21.024;2024-03-06T09:26:41;32.93;;;15.17;;
22030;SDS011;11179;52.106;21.024;2024-03-06T09:29:07;34.00;;;15.60;;
22030;SDS011;11179;52.106;21.024;2024-03-06T09:31:32;29.70;;;14.63;;
22030;SDS011;11179;52.106;21.024;2024-03-06T09:33:57;31.90;;;14.30;;
22030;SDS011;11179;52.106;21.024;2024-03-06T09:36:23;28.90;;;14.17;;
22030;SDS011;11179;52.106;21.024;2024-03-06T09:38:50;39.03;;;14.73;;
22030;SDS011;11179;52.106;21.024;2024-03-06T09:41:15;32.37;;;16.00;;
22030;SDS011;11179;52.106;21.024;2024-03-06T09:43:42;29.93;;;14.93;;
22030;SDS011;11179;52.106;21.024;2024-03-06T09:46:09;36.63;;;19.13;;
22030;SDS011;11179;52.106;21.024;2024-03-06T09:48:35;29.73;;;13.30;;
22030;SDS011;11179;52.106;21.024;2024-03-06T09:51:01;29.10;;;14.50;;
22030;SDS011;11179;52.106;21.024;2024-03-06T09:53:27;32.90;;;14.60;;
22030;SDS011;11179;52.106;21.024;2024-03-06T09:55:52;29.30;;;14.10;;
22030;SDS011;11179;52.106;21.024;2024-03-06T09:58:19;31.53;;;14.30;;
22030;SDS011;11179;52.106;21.024;2024-03-06T10:00:44;37.70;;;13.40;;
22030;SDS011;11179;52.106;21.024;2024-03-06T10:03:12;35.13;;;15.70;;
22030;SDS011;11179;52.106;21.024;2024-03-06T10:05:38;30.40;;;15.13;;
22030;SDS011;11179;52.106;21.024;2024-03-06T10:08:04;33.23;;;13.80;;
22030;SDS011;11179;52.106;21.024;2024-03-06T10:10:30;36.30;;;16.20;;
22030;SDS011;11179;52.106;21.024;2024-03-06T10:12:55;29.13;;;13.37;;
22030;SDS011;11179;52.106;21.024;2024-03-06T10:15:25;29.43;;;14.73;;
22030;SDS011;11179;52.106;21.024;2024-03-06T10:18:09;31.50;;;14.13;;
22030;SDS011;11179;52.106;21.024;2024-03-06T10:20:35;30.47;;;15.17;;
22030;SDS011;11179;52.106;21.024;2024-03-06T10:23:01;31.13;;;13.30;;
22030;SDS011;11179;52.106;21.024;2024-03-06T10:25:26;28.50;;;13.57;;
22030;SDS011;11179;52.106;21.024;2024-03-06T10:28:05;28.00;;;14.07;;
22030;SDS011;11179;52.106;21.024;2024-03-06T10:30:34;27.27;;;9.73;;
22030;SDS011;11179;52.106;21.024;2024-03-06T10:33:02;26.83;;;11.83;;
22030;SDS011;11179;52.106;21.024;2024-03-06T10:35:28;35.60;;;15.23;;
22030;SDS011;11179;52.106;21.024;2024-03-06T10:37:54;28.37;;;13.57;;
22030;SDS011;11179;52.106;21.024;2024-03-06T10:40:19;20.80;;;8.60;;
22030;SDS011;11179;52.106;21.024;2024-03-06T10:42:45;29.00;;;11.60;;
22030;SDS011;11179;52.106;21.024;2024-03-06T10:45:14;34.63;;;15.33;;
22030;SDS011;11179;52.106;21.024;2024-03-06T10:47:41;37.90;;;12.13;;
22030;SDS011;11179;52.106;21.024;2024-03-06T10:50:12;33.03;;;15.43;;
22030;SDS011;11179;52.106;21.024;2024-03-06T10:52:40;34.90;;;15.63;;
22030;SDS011;11179;52.106;21.024;2024-03-06T10:55:06;48.47;;;15.23;;
22030;SDS011;11179;52.106;21.024;2024-03-06T10:57:32;35.80;;;15.83;;
22030;SDS011;11179;52.106;21.024;2024-03-06T10:59:58;33.27;;;12.20;;
22030;SDS011;11179;52.106;21.024;2024-03-06T11:02:25;40.05;;;15.43;;
22030;SDS011;11179;52.106;21.024;2024-03-06T11:04:52;35.97;;;15.57;;
22030;SDS011;11179;52.106;21.024;2024-03-06T11:07:19;34.10;;;14.43;;
22030;SDS011;11179;52.106;21.024;2024-03-06T11:09:44;32.73;;;13.20;;
22030;SDS011;11179;52.106;21.024;2024-03-06T11:12:27;16.33;;;6.73;;
22030;SDS011;11179;52.106;21.024;2024-03-06T11:14:57;34.13;;;12.90;;
22030;SDS011;11179;52.106;21.024;2024-03-06T11:17:25;34.67;;;12.63;;
22030;SDS011;11179;52.106;21.024;2024-03-06T11:28:16;29.77;;;11.40;;
22030;SDS011;11179;52.106;21.024;2024-03-06T11:30:47;33.40;;;14.80;;
22030;SDS011;11179;52.106;21.024;2024-03-06T11:33:16;36.07;;;13.90;;
22030;SDS011;11179;52.106;21.024;2024-03-06T11:35:42;35.43;;;14.27;;
22030;SDS011;11179;52.106;21.024;2024-03-06T11:38:16;31.13;;;12.47;;
22030;SDS011;11179;52.106;21.024;2024-03-06T11:40:43;27.67;;;11.47;;
22030;SDS011;11179;52.106;21.024;2024-03-06T11:43:24;29.20;;;12.37;;
22030;SDS011;11179;52.106;21.024;2024-03-06T11:45:51;30.20;;;10.70;;
22030;SDS011;11179;52.106;21.024;2024-03-06T11:48:16;31.50;;;13.80;;
22030;SDS011;11179;52.106;21.024;2024-03-06T11:50:44;27.73;;;10.70;;
22030;SDS011;11179;52.106;21.024;2024-03-06T11:53:10;29.43;;;12.50;;
22030;SDS011;11179;52.106;21.024;2024-03-06T11:55:36;28.97;;;12.93;;
22030;SDS011;11179;52.106;21.024;2024-03-06T11:58:01;25.17;;;10.77;;
22030;SDS011;11179;52.106;21.024;2024-03-06T12:00:29;24.43;;;11.63;;
22030;SDS011;11179;52.106;21.024;2024-03-06T12:02:55;27.93;;;11.60;;
22030;SDS011;11179;52.106;21.024;2024-03-06T12:05:22;21.57;;;9.40;;
22030;SDS011;11179;52.106;21.024;2024-03-06T12:07:49;24.87;;;11.30;;
22030;SDS011;11179;52.106;21.024;2024-03-06T12:10:16;19.60;;;9.73;;
22030;SDS011;11179;52.106;21.024;2024-03-06T12:12:42;21.33;;;10.43;;
22030;SDS011;11179;52.106;21.024;2024-03-06T12:15:10;21.80;;;10.07;;
22030;SDS011;11179;52.106;21.024;2024-03-06T12:17:47;24.10;;;9.67;;
22030;SDS011;11179;52.106;21.024;2024-03-06T12:20:15;22.73;;;11.47;;
22030;SDS011;11179;52.106;21.024;2024-03-06T12:22:51;23.13;;;9.93;;
22030;SDS011;11179;52.106;21.024;2024-03-06T12:25:20;18.53;;;8.10;;
22030;SDS011;11179;52.106;21.024;2024-03-06T12:27:50;24.70;;;10.30;;
22030;SDS011;11179;52.106;21.024;2024-03-06T12:30:20;14.03;;;5.87;;
22030;SDS011;11179;52.106;21.024;2024-03-06T12:35:26;22.33;;;10.60;;
22030;SDS011;11179;52.106;21.024;2024-03-06T12:37:52;22.00;;;9.90;;
22030;SDS011;11179;52.106;21.024;2024-03-06T12:40:18;16.40;;;8.77;;
22030;SDS011;11179;52.106;21.024;2024-03-06T12:42:46;21.17;;;10.80;;
22030;SDS011;11179;52.106;21.024;2024-03-06T12:45:12;27.97;;;11.50;;
22030;SDS011;11179;52.106;21.024;2024-03-06T12:47:42;16.63;;;8.73;;
22030;SDS011;11179;52.106;21.024;2024-03-06T12:50:08;22.10;;;10.60;;
22030;SDS011;11179;52.106;21.024;2024-03-06T12:52:35;27.77;;;11.20;;
22030;SDS011;11179;52.106;21.024;2024-03-06T12:55:01;19.90;;;9.63;;
22030;SDS011;11179;52.106;21.024;2024-03-06T12:57:26;18.40;;;9.00;;
22030;SDS011;11179;52.106;21.024;2024-03-06T12:59:55;20.40;;;8.97;;
22030;SDS011;11179;52.106;21.024;2024-03-06T13:02:20;18.27;;;7.87;;
22030;SDS011;11179;52.106;21.024;2024-03-06T13:04:45;17.00;;;7.40;;
22030;SDS011;11179;52.106;21.024;2024-03-06T13:07:11;17.37;;;8.07;;
22030;SDS011;11179;52.106;21.024;2024-03-06T13:09:36;19.00;;;8.90;;
22030;SDS011;11179;52.106;21.024;2024-03-06T13:12:01;21.50;;;9.10;;
22030;SDS011;11179;52.106;21.024;2024-03-06T13:14:27;26.93;;;8.70;;
22030;SDS011;11179;52.106;21.024;2024-03-06T13:16:52;18.87;;;8.50;;
22030;SDS011;11179;52.106;21.024;2024-03-06T13:19:18;19.37;;;7.00;;
22030;SDS011;11179;52.106;21.024;2024-03-06T13:21:43;20.70;;;8.47;;
22030;SDS011;11179;52.106;21.024;2024-03-06T13:24:08;18.17;;;8.37;;
22030;SDS011;11179;52.106;21.024;2024-03-06T13:26:34;22.03;;;9.17;;
22030;SDS011;11179;52.106;21.024;2024-03-06T13:29:00;24.90;;;9.10;;
22030;SDS011;11179;52.106;21.024;2024-03-06T13:31:25;13.50;;;6.03;;
22030;SDS011;11179;52.106;21.024;2024-03-06T13:33:50;17.93;;;8.67;;
22030;SDS011;11179;52.106;21.024;2024-03-06T13:36:16;20.17;;;8.90;;
22030;SDS011;11179;52.106;21.024;2024-03-06T13:38:41;26.23;;;8.60;;
22030;SDS011;11179;52.106;21.024;2024-03-06T13:41:06;15.50;;;8.33;;
22030;SDS011;11179;52.106;21.024;2024-03-06T13:43:32;18.60;;;9.03;;
22030;SDS011;11179;52.106;21.024;2024-03-06T13:45:57;18.80;;;8.60;;
22030;SDS011;11179;52.106;21.024;2024-03-06T13:48:23;17.03;;;8.57;;
22030;SDS011;11179;52.106;21.024;2024-03-06T13:50:48;20.83;;;8.83;;
22030;SDS011;11179;52.106;21.024;2024-03-06T13:53:14;23.50;;;8.90;;
22030;SDS011;11179;52.106;21.024;2024-03-06T13:55:40;20.10;;;7.77;;
22030;SDS011;11179;52.106;21.024;2024-03-06T13:58:06;24.30;;;8.73;;
22030;SDS011;11179;52.106;21.024;2024-03-06T14:00:32;22.70;;;8.50;;
22030;SDS011;11179;52.106;21.024;2024-03-06T14:02:59;18.97;;;8.50;;
22030;SDS011;11179;52.106;21.024;2024-03-06T14:05:25;20.87;;;8.40;;
22030;SDS011;11179;52.106;21.024;2024-03-06T14:07:51;22.17;;;8.27;;
22030;SDS011;11179;52.106;21.024;2024-03-06T14:10:17;23.40;;;7.97;;
22030;SDS011;11179;52.106;21.024;2024-03-06T14:12:44;20.77;;;8.50;;
22030;SDS011;11179;52.106;21.024;2024-03-06T14:15:10;26.80;;;8.63;;